LIBP/PSR METAR and TAF weather

Enter ICAO airport designator
Station Type Date Time Source
LIBP METAR 2019/11/18 03:50 UTC NOAA

LIBP 180350Z AUTO 20011KT 9999 NCD 13/03 Q1011


Station Type Date Time Source
LIBP Decoded METAR 2019/11/18 03:50 UTC NOAA

Pescara, Italy (LIBP) 42-26N 014-12E 11M
Nov 17, 2019 - 10:50 PM EST / 2019.11.18 0350 UTC
Wind: from the SSW (200 degrees) at 13 MPH (11 KT):0
Visibility: greater than 7 mile(s):0
Temperature: 55 F (13 C)
Dew Point: 37 F (3 C)
Relative Humidity: 50%
Pressure (altimeter): 29.85 in. Hg (1011 hPa)
ob: LIBP 180350Z AUTO 20011KT 9999 NCD 13/03 Q1011
cycle: 4

Station Type Date Time Source
LIBP TAF 2019/11/17 18:21 UTC NOAA

TAF LIBP 171700Z 1718/1818 22010KT 9999 SCT020 BKN050

Example: see airport list